首页
METAR-TAF:

METAR-TAF

机场 :

波尔多, 法国

纬度: 44-50N, 经度: 000-42W, 海拔: 49米

当前天气观测

该预报发布于32分钟前的13:00 UTC
风速5节,风向多变
温度 31°C
湿度 36%
气压 1009 hPa
能见度10公里或以上
1500米以下无云,无积雨云

METAR: LFBD 181300Z AUTO VRB05KT CAVOK 31/14 Q1009 NOSIG

时间: 15:32 (13:32 UTC)

预报

该预报发布于2小时和32分钟前的11:00 UTC
预报有效从18日的 12点(UTC)到 19日的 18点(UTC)
风速5节,风向
能见度10公里或以上
1500米以下无云,无积雨云
成为
从 18日的 16点(UTC)到 18日的 18点(UTC)
风速10节,风向西北
几率 40% :
短暂存在
从 18日的 21点(UTC)到 19日的 02点(UTC)
多云层高于8000英尺, 塔状积云.
小阵雨
几率 30% :
短暂存在
从 18日的 21点(UTC)到 18日的 24点(UTC)
风速15节,风向多变,有时为25节阵风
能見度: 4000
散云层高于1500英尺
多云层高于7000英尺, 积雨云.
雷暴, 雨
成为
从 19日的 04点(UTC)到 19日的 06点(UTC)
风速5节,风向西
几率 40% :
短暂存在
从 19日的 12点(UTC)到 19日的 15点(UTC)
散云层高于4000英尺, 塔状积云.

TAF: LFBD 181100Z 1812/1918 19005KT CAVOK TX33/1815Z TN17/1904Z BECMG 1816/1818 32010KT PROB40 TEMPO 1821/1902 -SHRA BKN080TCU PROB30 TEMPO 1821/1824 VRB15G25KT 4000 TSRA SCT015 BKN070CB BECMG 1904/1906 27005KT PROB40 TEMPO 1912/1915 SCT040TCU

超过4000个机场的气象观测和天气预报(METAR&TAF报告)。

可查询的气象台以黄色和红色小点在地图上表示。

将鼠标移到小点上方,可查看气象台名称。

然后点击查看天气观测和预报。

如需切换地图:点击带黑十字的绿色按钮放大地图;点击带横线的绿色按钮缩小地图;或者点击绿色箭头查看邻近地区的地图。


METAR-TAF: